Time;durP1;ratioP1;P1;durP2;ratioP2;P2;SDS_P1;SDS_P2;PMS_P1;PMS_P2;Temp;Humidity;BMP_temperature;BMP_pressure;BME280_temperature;BME280_humidity;BME280_pressure;Samples;Min_cycle;Max_cycle;Signal;HPM_P1;HPM_P2
2021/10/04 00:01:57;;;;;;;4.32;0.95;;;12.30;96.10;;;;;;4998034;28;20401;-75
2021/10/04 00:04:22;;;;;;;4.18;0.80;;;12.20;95.90;;;;;;5015581;28;20061;-75
2021/10/04 00:06:48;;;;;;;4.93;0.98;;;12.20;95.90;;;;;;5015171;28;20131;-76
2021/10/04 00:09:13;;;;;;;2.58;0.90;;;12.20;95.90;;;;;;5014378;28;20030;-76
2021/10/04 00:11:40;;;;;;;5.85;0.95;;;12.20;95.90;;;;;;4997917;28;20026;-75
2021/10/04 00:14:05;;;;;;;2.90;0.82;;;12.20;96.00;;;;;;4997742;28;20026;-75
2021/10/04 00:16:31;;;;;;;3.30;0.80;;;12.20;96.00;;;;;;4998092;28;20032;-75
2021/10/04 00:18:57;;;;;;;6.13;1.27;;;12.10;96.00;;;;;;5014660;28;20095;-74
2021/10/04 00:21:22;;;;;;;6.03;0.90;;;12.10;96.00;;;;;;5015428;28;20034;-75
2021/10/04 00:23:48;;;;;;;6.00;0.75;;;12.10;96.10;;;;;;4997315;28;20081;-76
2021/10/04 00:26:14;;;;;;;3.80;1.13;;;12.10;96.10;;;;;;5014810;28;20466;-76
2021/10/04 00:28:40;;;;;;;4.95;1.25;;;12.10;96.10;;;;;;4996773;28;20030;-75
2021/10/04 00:31:06;;;;;;;6.30;1.00;;;12.10;96.20;;;;;;5014109;28;20034;-75
2021/10/04 00:33:32;;;;;;;7.80;0.85;;;12.10;96.20;;;;;;5013810;28;20045;-76
2021/10/04 00:35:58;;;;;;;3.72;1.02;;;12.10;96.20;;;;;;4997599;28;20057;-75
2021/10/04 00:38:24;;;;;;;4.85;1.20;;;12.10;96.20;;;;;;5013963;28;20041;-76
2021/10/04 00:40:49;;;;;;;3.58;1.00;;;12.00;96.20;;;;;;5014230;28;20041;-75
2021/10/04 00:43:15;;;;;;;3.65;0.90;;;12.00;96.30;;;;;;5014000;28;20030;-75
2021/10/04 00:45:41;;;;;;;4.15;0.90;;;12.10;96.40;;;;;;4997684;28;20398;-76
2021/10/04 00:48:06;;;;;;;4.15;0.95;;;12.00;96.40;;;;;;5014429;28;20516;-76
2021/10/04 00:50:32;;;;;;;4.38;1.08;;;12.00;96.40;;;;;;5014159;28;20030;-76
2021/10/04 00:52:59;;;;;;;3.45;1.08;;;11.90;96.40;;;;;;5013890;28;20426;-76
2021/10/04 00:55:25;;;;;;;5.00;0.90;;;12.00;96.40;;;;;;4997931;28;20474;-75
2021/10/04 00:57:51;;;;;;;3.30;1.10;;;12.00;96.50;;;;;;4997573;28;20084;-76
2021/10/04 01:00:21;;;;;;;4.80;1.33;;;12.00;96.50;;;;;;5014819;28;20030;-75
2021/10/04 01:02:47;;;;;;;6.90;1.25;;;12.00;96.50;;;;;;5013804;28;20029;-76
2021/10/04 01:05:13;;;;;;;4.95;1.05;;;12.00;96.50;;;;;;5013604;28;20095;-76
2021/10/04 01:07:40;;;;;;;3.72;1.00;;;12.00;96.60;;;;;;4997126;28;20397;-76
2021/10/04 01:10:09;;;;;;;3.55;1.02;;;12.00;96.60;;;;;;5014958;28;20032;-75
2021/10/04 01:12:36;;;;;;;6.03;1.20;;;12.00;96.60;;;;;;5013130;28;20022;-75
2021/10/04 01:15:02;;;;;;;5.50;0.90;;;12.00;96.60;;;;;;5013417;28;20033;-75
2021/10/04 01:17:27;;;;;;;3.88;0.90;;;12.00;96.60;;;;;;5013575;28;20025;-76
2021/10/04 01:19:53;;;;;;;5.15;0.98;;;12.00;96.60;;;;;;5015022;28;20116;-76
2021/10/04 01:22:19;;;;;;;3.78;1.25;;;12.00;96.70;;;;;;4996801;28;20026;-76
2021/10/04 01:24:44;;;;;;;4.68;1.00;;;12.00;96.70;;;;;;5013010;28;20053;-74
2021/10/04 01:27:10;;;;;;;4.10;0.93;;;11.90;96.60;;;;;;5012995;28;20042;-76
2021/10/04 01:29:36;;;;;;;2.65;0.80;;;12.00;96.70;;;;;;4996937;28;20029;-75
2021/10/04 01:32:01;;;;;;;5.38;0.80;;;12.00;96.70;;;;;;4996924;28;20036;-76
2021/10/04 01:34:27;;;;;;;3.42;1.00;;;12.00;96.70;;;;;;5012821;28;20137;-76
2021/10/04 01:36:53;;;;;;;4.45;0.80;;;11.90;96.60;;;;;;4996627;28;20060;-76
2021/10/04 01:39:18;;;;;;;2.70;0.70;;;12.00;96.70;;;;;;5012695;28;20061;-76
2021/10/04 01:41:44;;;;;;;3.25;0.90;;;12.00;96.70;;;;;;5012926;28;20476;-74
2021/10/04 01:44:11;;;;;;;3.78;0.90;;;12.00;96.60;;;;;;5012801;28;20026;-75
2021/10/04 01:46:36;;;;;;;5.28;1.13;;;12.00;96.60;;;;;;4996621;28;20060;-74
2021/10/04 01:49:02;;;;;;;5.13;0.90;;;12.00;96.60;;;;;;5012576;28;20065;-75
2021/10/04 01:51:28;;;;;;;4.30;0.95;;;12.00;96.60;;;;;;5012799;28;20037;-75
2021/10/04 01:53:54;;;;;;;2.17;0.60;;;12.00;96.50;;;;;;5013905;28;20084;-75
2021/10/04 01:56:19;;;;;;;5.93;0.75;;;12.00;96.50;;;;;;5013883;28;20036;-76
2021/10/04 01:58:45;;;;;;;3.63;0.80;;;12.00;96.50;;;;;;5013050;28;20037;-75
2021/10/04 02:01:11;;;;;;;2.65;0.55;;;12.00;96.50;;;;;;5012650;28;20063;-77
2021/10/04 02:03:36;;;;;;;3.17;0.73;;;12.00;96.50;;;;;;5012644;28;20045;-76
2021/10/04 02:06:02;;;;;;;4.05;0.93;;;12.00;96.40;;;;;;5013983;28;20129;-77
2021/10/04 02:08:28;;;;;;;6.35;0.93;;;12.00;96.40;;;;;;5012488;28;20463;-76
2021/10/04 02:10:54;;;;;;;2.83;0.85;;;12.00;96.40;;;;;;4996423;28;20033;-76
2021/10/04 02:13:20;;;;;;;3.20;1.23;;;12.00;96.40;;;;;;5012662;28;20062;-77
2021/10/04 02:15:45;;;;;;;5.50;0.95;;;12.00;96.40;;;;;;5012401;28;20555;-76
2021/10/04 02:18:12;;;;;;;2.92;0.57;;;12.00;96.40;;;;;;5012459;28;20089;-78
2021/10/04 02:20:41;;;;;;;2.97;0.50;;;12.00;96.30;;;;;;5013629;28;20092;-77
2021/10/04 02:23:08;;;;;;;6.65;1.00;;;12.00;96.30;;;;;;5012104;28;20394;-78
2021/10/04 02:25:46;;;;;;;3.33;0.63;;;12.00;96.30;;;;;;5012078;28;20054;-76
2021/10/04 02:28:13;;;;;;;4.65;0.70;;;12.00;96.30;;;;;;5012099;28;20022;-78
2021/10/04 02:30:39;;;;;;;5.13;0.75;;;12.00;96.20;;;;;;5013781;28;20053;-77
2021/10/04 02:33:06;;;;;;;3.92;0.63;;;12.00;96.30;;;;;;5012104;28;20458;-78
2021/10/04 02:35:32;;;;;;;3.83;0.70;;;12.00;96.20;;;;;;4996142;28;20026;-78
2021/10/04 02:37:59;;;;;;;1.33;0.50;;;12.00;96.30;;;;;;5013508;28;20034;-78
2021/10/04 02:40:25;;;;;;;3.40;0.70;;;12.00;96.50;;;;;;5013460;28;20456;-78
2021/10/04 02:42:53;;;;;;;1.98;0.57;;;12.00;96.20;;;;;;5011986;28;20396;-78
2021/10/04 02:45:20;;;;;;;1.65;0.60;;;12.00;96.20;;;;;;5012121;28;20397;-77
2021/10/04 02:47:48;;;;;;;4.95;0.80;;;12.00;96.20;;;;;;5012027;28;20045;-78
2021/10/04 02:50:17;;;;;;;4.90;0.52;;;11.90;96.20;;;;;;5012634;28;20029;-77
2021/10/04 02:52:43;;;;;;;4.22;0.80;;;12.00;96.20;;;;;;5017259;28;20025;-77
2021/10/04 02:55:09;;;;;;;3.05;0.90;;;12.00;96.20;;;;;;5017441;28;20511;-78
2021/10/04 02:57:35;;;;;;;3.97;0.63;;;12.00;96.20;;;;;;5016026;28;20037;-77
2021/10/04 03:00:01;;;;;;;4.72;0.85;;;12.00;96.20;;;;;;4999636;28;20165;-78
2021/10/04 03:02:27;;;;;;;1.73;0.55;;;11.90;96.10;;;;;;4999406;28;20030;-78
2021/10/04 03:04:53;;;;;;;1.42;0.50;;;11.90;96.10;;;;;;4999337;28;20037;-77
2021/10/04 03:07:19;;;;;;;4.80;0.88;;;12.00;96.10;;;;;;4999425;28;20030;-78
2021/10/04 03:09:44;;;;;;;6.43;0.70;;;12.00;96.10;;;;;;5015469;28;20018;-78
2021/10/04 03:12:10;;;;;;;5.85;1.05;;;12.00;96.10;;;;;;4999093;28;20113;-78
2021/10/04 03:14:36;;;;;;;4.50;0.65;;;12.00;96.10;;;;;;5015956;28;20458;-78
2021/10/04 03:17:02;;;;;;;5.05;0.80;;;12.00;96.10;;;;;;5015553;28;20018;-77
2021/10/04 03:19:29;;;;;;;1.83;0.65;;;11.90;96.00;;;;;;5016659;28;20037;-78
2021/10/04 03:21:54;;;;;;;3.88;0.90;;;12.00;96.10;;;;;;5016685;28;20368;-78
2021/10/04 03:24:20;;;;;;;2.55;0.77;;;12.00;96.10;;;;;;5015307;28;20141;-79
2021/10/04 03:26:46;;;;;;;3.22;0.75;;;12.00;96.10;;;;;;4998856;28;20386;-77
2021/10/04 03:29:12;;;;;;;2.15;0.52;;;12.00;96.00;;;;;;5015389;28;20065;-79
2021/10/04 03:31:38;;;;;;;3.30;0.52;;;12.00;96.00;;;;;;5015170;28;20466;-78
2021/10/04 03:34:05;;;;;;;3.60;0.55;;;12.10;96.00;;;;;;5016315;28;20359;-78
2021/10/04 03:36:31;;;;;;;5.00;0.52;;;12.10;95.80;;;;;;4998889;28;20116;-77
2021/10/04 03:38:57;;;;;;;4.13;0.68;;;12.10;95.80;;;;;;5014923;28;20022;-77
2021/10/04 03:41:23;;;;;;;5.68;0.70;;;12.10;95.70;;;;;;5014945;28;20635;-78
2021/10/04 03:43:50;;;;;;;3.55;0.68;;;12.10;95.70;;;;;;5015080;28;20104;-77
2021/10/04 03:46:16;;;;;;;3.88;0.52;;;12.10;95.70;;;;;;5016571;28;20034;-77
2021/10/04 03:48:41;;;;;;;4.30;0.70;;;12.10;95.70;;;;;;4998511;28;20034;-78
2021/10/04 03:51:07;;;;;;;6.90;0.60;;;12.20;95.70;;;;;;5014749;28;20041;-79
2021/10/04 03:53:32;;;;;;;2.47;0.52;;;12.20;95.60;;;;;;5014834;28;20053;-78
2021/10/04 03:55:58;;;;;;;2.75;0.50;;;12.20;95.60;;;;;;5015007;28;20061;-78
2021/10/04 03:58:24;;;;;;;3.13;1.10;;;12.20;95.60;;;;;;5015979;28;20538;-78
2021/10/04 04:00:49;;;;;;;5.65;0.85;;;12.20;95.60;;;;;;5016182;28;20045;-78
2021/10/04 04:03:15;;;;;;;1.77;0.63;;;12.20;95.50;;;;;;5014565;28;20129;-78
2021/10/04 04:05:41;;;;;;;3.35;0.60;;;12.20;95.60;;;;;;5015131;28;20034;-78
2021/10/04 04:08:06;;;;;;;3.38;0.77;;;12.20;95.50;;;;;;5014755;28;20525;-78
2021/10/04 04:10:32;;;;;;;1.90;0.60;;;12.20;95.50;;;;;;5014678;28;20049;-78
2021/10/04 04:12:58;;;;;;;4.35;1.02;;;12.20;95.50;;;;;;5014630;28;20038;-80
2021/10/04 04:15:24;;;;;;;6.68;0.75;;;12.20;95.50;;;;;;5014579;28;20489;-79
2021/10/04 04:17:50;;;;;;;5.75;0.68;;;12.20;95.50;;;;;;5015638;28;20099;-78
2021/10/04 04:20:15;;;;;;;2.75;0.60;;;12.20;95.50;;;;;;4998059;28;20455;-78
2021/10/04 04:22:42;;;;;;;4.57;0.50;;;12.20;95.50;;;;;;5014216;28;20075;-76
2021/10/04 04:25:08;;;;;;;2.00;0.60;;;12.30;95.50;;;;;;5014301;28;20184;-78
2021/10/04 04:27:35;;;;;;;4.88;1.25;;;12.20;95.40;;;;;;4997690;28;20030;-79
2021/10/04 04:30:01;;;;;;;6.13;0.70;;;12.20;95.40;;;;;;5030622;28;20079;-77
2021/10/04 04:32:28;;;;;;;6.85;1.20;;;12.20;95.30;;;;;;5014066;28;20018;-77
2021/10/04 04:34:53;;;;;;;5.72;0.55;;;12.20;95.30;;;;;;5014344;28;20025;-78
2021/10/04 04:37:19;;;;;;;2.67;0.70;;;12.20;95.10;;;;;;5014786;28;20113;-77
2021/10/04 04:39:46;;;;;;;5.95;0.68;;;12.20;95.20;;;;;;5013920;28;20034;-77
2021/10/04 04:42:12;;;;;;;5.20;0.80;;;12.20;95.20;;;;;;5014710;28;20454;-78
2021/10/04 04:44:38;;;;;;;3.28;0.63;;;12.30;95.20;;;;;;4993978;28;20512;-77
2021/10/04 04:47:03;;;;;;;3.95;0.60;;;12.20;95.10;;;;;;5013607;28;20053;-77
2021/10/04 04:49:29;;;;;;;4.85;1.13;;;12.30;95.10;;;;;;5028575;28;20030;-77
2021/10/04 04:51:59;;;;;;;2.53;0.57;;;12.20;95.10;;;;;;5013573;28;20101;-79
2021/10/04 04:54:26;;;;;;;3.75;0.60;;;12.30;95.10;;;;;;5014847;28;20102;-76
2021/10/04 04:56:55;;;;;;;2.92;0.65;;;12.20;95.10;;;;;;5013779;28;20021;-77
2021/10/04 04:59:21;;;;;;;2.70;0.60;;;12.30;95.10;;;;;;5030119;28;20029;-77
2021/10/04 05:01:47;;;;;;;3.83;0.65;;;12.30;95.10;;;;;;5013589;28;20030;-78
2021/10/04 05:04:12;;;;;;;7.90;0.80;;;12.20;95.10;;;;;;5013351;28;20026;-78
2021/10/04 05:06:39;;;;;;;3.97;0.70;;;12.20;95.10;;;;;;5013308;28;20029;-80
2021/10/04 05:09:04;;;;;;;2.05;0.65;;;12.30;95.10;;;;;;5013560;28;20516;-77
2021/10/04 05:11:30;;;;;;;4.28;1.10;;;12.20;95.10;;;;;;5013181;28;20030;-77
2021/10/04 05:13:56;;;;;;;2.90;0.77;;;12.20;95.10;;;;;;5012824;28;20045;-78
2021/10/04 05:16:22;;;;;;;3.20;0.70;;;12.20;95.10;;;;;;5012792;28;20033;-77
2021/10/04 05:18:48;;;;;;;4.30;0.60;;;12.20;95.00;;;;;;5013920;28;20029;-77
2021/10/04 05:21:13;;;;;;;2.15;0.60;;;12.20;95.10;;;;;;5013002;28;20022;-78
2021/10/04 05:23:39;;;;;;;3.55;0.70;;;12.20;95.10;;;;;;5014353;28;20494;-76
2021/10/04 05:26:05;;;;;;;1.88;0.50;;;12.20;95.10;;;;;;5013048;28;20489;-76
2021/10/04 05:28:31;;;;;;;3.45;0.70;;;12.20;95.10;;;;;;5012835;28;20029;-77
2021/10/04 05:30:57;;;;;;;8.75;1.05;;;12.20;95.10;;;;;;5013916;28;20029;-77
2021/10/04 05:33:22;;;;;;;5.25;0.60;;;12.20;95.10;;;;;;5012860;28;20105;-77
2021/10/04 05:35:48;;;;;;;2.88;0.65;;;12.20;95.10;;;;;;5014138;28;20034;-77
2021/10/04 05:38:14;;;;;;;3.25;1.05;;;12.10;95.00;;;;;;4996541;28;20036;-77
2021/10/04 05:40:40;;;;;;;3.15;0.60;;;12.20;95.10;;;;;;4996377;28;20113;-76
2021/10/04 05:43:05;;;;;;;4.93;1.20;;;12.20;95.10;;;;;;5013820;28;20030;-77
2021/10/04 05:45:31;;;;;;;2.10;0.70;;;12.20;95.10;;;;;;5012902;28;20034;-77
2021/10/04 05:47:56;;;;;;;7.00;0.80;;;12.20;95.10;;;;;;4996457;28;20029;-75
2021/10/04 05:50:23;;;;;;;5.68;0.90;;;12.20;95.10;;;;;;5012610;28;20086;-78
2021/10/04 05:52:49;;;;;;;3.97;0.70;;;12.20;95.00;;;;;;4996820;28;20026;-77
2021/10/04 05:55:15;;;;;;;4.13;0.90;;;12.20;95.00;;;;;;5012383;28;20041;-77
2021/10/04 05:57:42;;;;;;;4.25;0.70;;;12.20;95.00;;;;;;5012366;28;20382;-76
2021/10/04 06:00:09;;;;;;;3.67;0.80;;;12.20;95.10;;;;;;4996300;28;20140;-77
2021/10/04 06:02:35;;;;;;;4.82;1.08;;;12.20;95.10;;;;;;5012327;28;20018;-76
2021/10/04 06:05:00;;;;;;;18.45;1.52;;;12.20;95.10;;;;;;5012472;28;20036;-77
2021/10/04 06:07:26;;;;;;;4.35;0.60;;;12.20;95.10;;;;;;5012184;28;20037;-77
2021/10/04 06:09:52;;;;;;;4.32;0.68;;;12.20;95.10;;;;;;4996154;28;20032;-80
2021/10/04 06:12:24;;;;;;;4.88;1.00;;;12.20;95.10;;;;;;5011997;28;20037;-77
2021/10/04 06:14:50;;;;;;;2.70;0.65;;;12.20;95.10;;;;;;5011930;28;20018;-76
2021/10/04 06:17:16;;;;;;;7.40;1.15;;;12.20;95.10;;;;;;5013931;28;20037;-77
2021/10/04 06:19:41;;;;;;;3.28;0.70;;;12.20;95.00;;;;;;5013325;28;20113;-76
2021/10/04 06:22:07;;;;;;;4.10;0.85;;;12.20;95.00;;;;;;4987460;28;20041;-78
2021/10/04 06:24:32;;;;;;;1.80;0.73;;;12.30;95.00;;;;;;4991572;28;20081;-79
2021/10/04 06:26:58;;;;;;;7.25;0.95;;;12.20;94.90;;;;;;4995254;28;20449;-76
2021/10/04 06:29:24;;;;;;;4.93;0.60;;;12.20;94.90;;;;;;5013360;28;20038;-78
2021/10/04 06:31:49;;;;;;;1.55;0.50;;;12.20;94.90;;;;;;5024727;28;20053;-77
2021/10/04 06:34:15;;;;;;;4.28;0.80;;;12.30;95.00;;;;;;5016334;28;20068;-77
2021/10/04 06:36:41;;;;;;;5.15;0.60;;;12.30;94.90;;;;;;5017389;28;20026;-77
2021/10/04 06:39:06;;;;;;;7.93;1.08;;;12.30;94.90;;;;;;5016273;28;20026;-79
2021/10/04 06:41:32;;;;;;;2.40;0.90;;;12.30;94.90;;;;;;5002177;28;20030;-77
2021/10/04 06:43:58;;;;;;;5.65;0.80;;;12.30;94.90;;;;;;5014656;28;20398;-77
2021/10/04 06:46:23;;;;;;;2.95;0.77;;;12.40;94.80;;;;;;5013265;28;20402;-77
2021/10/04 06:48:49;;;;;;;10.05;0.90;;;12.40;94.80;;;;;;5011415;28;20109;-77
2021/10/04 06:51:15;;;;;;;2.00;0.57;;;12.40;94.70;;;;;;5016051;28;20030;-77
2021/10/04 06:53:40;;;;;;;2.30;0.52;;;12.40;94.80;;;;;;4987291;28;20495;-76
2021/10/04 06:56:06;;;;;;;5.68;0.70;;;12.40;94.70;;;;;;4999281;28;20455;-78
2021/10/04 06:58:31;;;;;;;9.63;0.80;;;12.50;94.70;;;;;;5000949;28;20111;-76
2021/10/04 07:00:57;;;;;;;2.83;0.73;;;12.50;94.60;;;;;;5012648;28;20069;-77
2021/10/04 07:03:23;;;;;;;6.15;0.70;;;12.50;94.50;;;;;;4979795;28;20367;-76
2021/10/04 07:05:51;;;;;;;3.42;0.68;;;12.50;94.50;;;;;;5016557;28;20034;-78
2021/10/04 07:08:18;;;;;;;4.72;0.60;;;12.60;94.60;;;;;;4999295;28;20548;-78
2021/10/04 07:10:43;;;;;;;4.75;0.75;;;12.60;94.70;;;;;;4999664;28;20026;-77
2021/10/04 07:13:09;;;;;;;3.40;0.70;;;12.60;94.50;;;;;;4999075;28;20340;-77
2021/10/04 07:15:35;;;;;;;4.82;0.60;;;12.60;94.30;;;;;;5016821;28;20034;-78
2021/10/04 07:18:00;;;;;;;3.03;0.60;;;12.60;94.20;;;;;;5015606;28;20033;-76
2021/10/04 07:20:26;;;;;;;2.70;0.73;;;12.60;94.20;;;;;;5015605;28;20030;-77
2021/10/04 07:22:52;;;;;;;3.92;0.80;;;12.60;94.10;;;;;;5016691;28;20474;-77
2021/10/04 07:25:17;;;;;;;2.45;0.50;;;12.60;94.20;;;;;;5014099;28;20521;-79
2021/10/04 07:27:43;;;;;;;3.80;0.88;;;12.60;94.40;;;;;;4997355;28;20034;-78
2021/10/04 07:30:10;;;;;;;4.15;0.60;;;12.60;94.10;;;;;;5013818;28;20032;-77
2021/10/04 07:32:36;;;;;;;5.25;0.70;;;12.60;94.10;;;;;;5013842;28;20026;-78
2021/10/04 07:35:02;;;;;;;8.00;0.98;;;12.60;94.10;;;;;;5015504;28;20521;-77
2021/10/04 07:37:28;;;;;;;3.35;0.50;;;12.60;94.10;;;;;;4996671;28;20528;-78
2021/10/04 07:39:54;;;;;;;6.00;0.70;;;12.60;94.00;;;;;;4997466;28;20113;-76
2021/10/04 07:42:20;;;;;;;3.80;1.27;;;12.70;94.10;;;;;;5014130;28;20080;-76
2021/10/04 07:44:46;;;;;;;5.13;0.90;;;12.70;94.30;;;;;;5013832;28;20386;-77
2021/10/04 07:47:12;;;;;;;4.07;0.90;;;12.70;93.90;;;;;;4997819;28;20027;-78
2021/10/04 07:49:37;;;;;;;4.18;0.68;;;12.60;93.80;;;;;;5015698;28;20030;-77
2021/10/04 07:52:04;;;;;;;3.85;0.43;;;12.70;93.80;;;;;;5030775;28;20030;-77
2021/10/04 07:54:29;;;;;;;4.80;0.60;;;12.70;93.80;;;;;;5013787;28;20026;-77
2021/10/04 07:56:55;;;;;;;5.68;0.70;;;12.70;93.90;;;;;;5029713;28;20080;-77
2021/10/04 07:59:21;;;;;;;5.72;0.77;;;12.70;93.80;;;;;;5013444;28;20661;-76
2021/10/04 08:01:46;;;;;;;4.38;0.82;;;12.70;93.90;;;;;;5014753;28;20037;-77
2021/10/04 08:04:12;;;;;;;4.75;1.00;;;12.60;93.90;;;;;;5013625;28;20034;-77
2021/10/04 08:06:38;;;;;;;1.88;0.40;;;12.70;93.90;;;;;;5013448;28;20045;-77
2021/10/04 08:09:03;;;;;;;4.03;0.80;;;12.70;93.90;;;;;;5013312;28;20426;-79
2021/10/04 08:11:29;;;;;;;5.63;0.57;;;12.70;93.90;;;;;;5013756;28;20429;-77
2021/10/04 08:13:55;;;;;;;4.95;0.63;;;12.70;94.00;;;;;;5014860;28;20033;-77
2021/10/04 08:16:22;;;;;;;5.55;0.95;;;12.70;93.90;;;;;;5013531;28;20084;-77
2021/10/04 08:18:51;;;;;;;4.57;0.70;;;12.80;93.90;;;;;;5013405;28;20026;-77
2021/10/04 08:21:19;;;;;;;4.30;0.60;;;12.80;93.80;;;;;;5029566;28;20474;-75
2021/10/04 08:26:23;;;;;;;3.60;0.60;;;12.90;93.80;;;;;;5111215;27;20895;-76
2021/10/04 08:28:49;;;;;;;4.03;0.60;;;13.00;94.10;;;;;;5093361;28;20090;-77
2021/10/04 08:31:14;;;;;;;2.88;0.60;;;13.10;93.80;;;;;;5111760;28;20532;-75
2021/10/04 08:33:40;;;;;;;6.38;0.63;;;13.10;93.80;;;;;;5110437;28;20032;-78
2021/10/04 08:36:06;;;;;;;3.75;0.50;;;13.10;93.70;;;;;;5110167;28;20125;-76
2021/10/04 08:38:32;;;;;;;4.13;0.77;;;13.20;93.70;;;;;;5089495;28;20029;-76
2021/10/04 08:40:58;;;;;;;3.70;0.60;;;13.20;93.40;;;;;;5107863;28;20081;-77
2021/10/04 08:43:24;;;;;;;5.38;0.60;;;13.30;93.40;;;;;;5111303;28;20023;-79
2021/10/04 08:45:52;;;;;;;5.75;0.88;;;13.40;93.20;;;;;;5089754;28;20024;-77
2021/10/04 08:48:18;;;;;;;4.88;0.80;;;13.40;93.10;;;;;;5090691;28;20380;-77
2021/10/04 08:50:44;;;;;;;10.88;1.13;;;13.40;93.00;;;;;;5090700;28;20024;-77
2021/10/04 08:53:09;;;;;;;6.00;0.82;;;13.50;93.00;;;;;;5072657;28;20024;-74
2021/10/04 08:55:35;;;;;;;4.70;0.60;;;13.60;92.80;;;;;;5072646;28;20025;-78
2021/10/04 08:58:07;;;;;;;2.28;0.50;;;13.60;92.30;;;;;;5088986;28;20024;-77
2021/10/04 09:00:33;;;;;;;7.57;0.70;;;13.70;92.40;;;;;;5073176;28;20032;-79
2021/10/04 09:03:02;;;;;;;4.07;0.80;;;13.70;92.10;;;;;;5088966;28;20553;-76
2021/10/04 09:05:29;;;;;;;5.07;0.70;;;13.80;92.00;;;;;;5089421;28;20055;-77
2021/10/04 09:07:56;;;;;;;13.02;1.00;;;13.90;91.90;;;;;;5090284;28;20070;-75
2021/10/04 09:10:25;;;;;;;2.00;0.40;;;13.90;91.90;;;;;;5090247;28;20086;-77
2021/10/04 09:12:58;;;;;;;6.80;0.70;;;14.00;92.00;;;;;;5090632;28;20461;-75
2021/10/04 09:15:27;;;;;;;2.00;0.50;;;14.00;91.90;;;;;;5090516;28;20016;-77
2021/10/04 09:17:53;;;;;;;6.20;0.70;;;14.10;91.90;;;;;;5089890;28;20032;-79
2021/10/04 09:20:19;;;;;;;6.35;0.73;;;14.10;92.00;;;;;;5100051;28;20039;-78
2021/10/04 09:22:45;;;;;;;4.88;0.82;;;14.20;91.70;;;;;;5109456;28;20468;-78
2021/10/04 09:25:13;;;;;;;3.88;0.68;;;14.30;91.40;;;;;;5110243;28;20052;-79
2021/10/04 09:27:40;;;;;;;5.05;0.77;;;14.30;91.50;;;;;;5091846;28;20342;-80
2021/10/04 09:30:13;;;;;;;6.90;0.60;;;14.40;91.60;;;;;;5090197;28;20664;-78
2021/10/04 09:32:42;;;;;;;3.37;0.40;;;14.40;91.10;;;;;;5088531;28;20054;-75
2021/10/04 09:35:12;;;;;;;6.82;0.75;;;14.50;91.20;;;;;;5089865;28;20021;-76
2021/10/04 09:37:37;;;;;;;4.00;0.40;;;14.60;91.10;;;;;;5075709;28;20024;-77
2021/10/04 09:40:04;;;;;;;3.47;0.80;;;14.70;91.00;;;;;;5074965;28;20339;-77
2021/10/04 09:42:37;;;;;;;3.67;0.55;;;14.80;91.10;;;;;;5075888;28;20029;-78
2021/10/04 09:45:05;;;;;;;4.72;0.60;;;14.90;90.70;;;;;;5076326;28;20028;-76
2021/10/04 09:47:39;;;;;;;11.98;0.80;;;15.20;90.60;;;;;;5075096;28;20465;-77
2021/10/04 09:50:14;;;;;;;6.88;0.77;;;15.40;89.90;;;;;;5074623;28;20029;-78
2021/10/04 09:52:53;;;;;;;5.68;0.70;;;15.80;89.30;;;;;;5075715;28;20414;-75
2021/10/04 09:55:33;;;;;;;5.63;0.63;;;16.20;89.30;;;;;;5078527;28;20064;-76
2021/10/04 09:58:16;;;;;;;4.45;0.60;;;16.70;87.00;;;;;;5087118;28;20032;-77
2021/10/04 10:00:47;;;;;;;6.97;0.60;;;17.20;85.70;;;;;;5075958;28;20361;-78
2021/10/04 10:03:17;;;;;;;5.20;0.75;;;18.00;85.90;;;;;;5075824;28;20157;-78
2021/10/04 10:05:54;;;;;;;4.57;0.50;;;18.70;83.10;;;;;;5076193;28;20020;-78
2021/10/04 10:08:25;;;;;;;3.33;0.50;;;19.30;82.10;;;;;;5074691;28;20063;-76
2021/10/04 10:10:54;;;;;;;3.47;0.50;;;20.00;81.00;;;;;;5075726;28;20056;-78
2021/10/04 10:13:23;;;;;;;5.22;0.50;;;20.70;77.60;;;;;;5075560;28;20392;-77
2021/10/04 10:16:12;;;;;;;5.30;0.47;;;21.20;75.20;;;;;;5074392;28;20058;-79
2021/10/04 10:18:47;;;;;;;2.85;0.47;;;21.70;71.70;;;;;;5073883;28;20016;-79
2021/10/04 10:21:18;;;;;;;2.40;0.52;;;22.10;67.80;;;;;;5073954;28;20089;-77
2021/10/04 10:23:54;;;;;;;3.20;0.40;;;22.50;68.50;;;;;;5073711;28;20028;-78
2021/10/04 10:26:26;;;;;;;5.10;0.60;;;22.90;66.90;;;;;;5074072;28;20052;-79
2021/10/04 10:29:20;;;;;;;3.20;0.40;;;23.20;65.00;;;;;;5086620;28;20098;-76
2021/10/04 10:31:53;;;;;;;2.95;0.55;;;23.60;64.10;;;;;;5074073;28;20182;-82
2021/10/04 10:34:31;;;;;;;3.72;0.40;;;24.10;62.00;;;;;;5075147;28;20029;-75
2021/10/04 10:37:17;;;;;;;3.33;0.40;;;24.50;60.10;;;;;;5074946;28;20105;-75
2021/10/04 10:39:54;;;;;;;3.95;0.50;;;24.80;57.90;;;;;;5075024;28;20101;-76
2021/10/04 10:42:33;;;;;;;3.38;0.60;;;25.00;55.90;;;;;;5073576;28;20019;-77
2021/10/04 10:45:05;;;;;;;2.80;0.50;;;25.10;55.70;;;;;;5075330;28;20055;-78
2021/10/04 10:47:33;;;;;;;3.10;0.40;;;25.20;55.20;;;;;;5074646;28;20025;-76
2021/10/04 10:50:09;;;;;;;4.22;0.47;;;25.30;54.10;;;;;;5074495;28;20031;-76
2021/10/04 10:52:46;;;;;;;5.85;0.50;;;25.50;52.90;;;;;;5073487;28;20491;-76
2021/10/04 10:55:21;;;;;;;4.25;0.45;;;25.70;52.40;;;;;;5074508;28;20361;-78
2021/10/04 10:57:54;;;;;;;3.13;0.52;;;25.90;51.20;;;;;;5089319;28;20511;-76
2021/10/04 11:00:41;;;;;;;1.05;0.30;;;26.00;50.90;;;;;;5074725;28;20078;-79
2021/10/04 11:03:10;;;;;;;3.17;0.60;;;26.00;49.60;;;;;;5074837;28;20032;-76
2021/10/04 11:08:06;;;;;;;2.50;0.50;;;25.70;48.50;;;;;;5074823;28;20021;-75
2021/10/04 11:10:32;;;;;;;3.60;0.50;;;25.50;48.50;;;;;;5074200;28;20480;-77
2021/10/04 11:13:07;;;;;;;2.55;0.40;;;25.60;49.40;;;;;;5074268;28;20029;-79
2021/10/04 11:15:36;;;;;;;3.55;0.50;;;26.10;49.80;;;;;;5072670;28;20128;-78
2021/10/04 11:18:03;;;;;;;2.03;0.40;;;26.40;48.70;;;;;;5092413;28;20036;-79
2021/10/04 11:20:29;;;;;;;3.78;0.60;;;26.70;48.20;;;;;;5094287;28;20036;-76
2021/10/04 11:23:06;;;;;;;4.20;0.70;;;26.80;47.40;;;;;;5083738;28;20038;-77
2021/10/04 11:25:55;;;;;;;3.38;0.52;;;27.00;44.60;;;;;;5085148;28;20508;-77
2021/10/04 11:28:38;;;;;;;3.83;0.60;;;27.10;44.70;;;;;;5092851;28;20020;-77
2021/10/04 11:31:06;;;;;;;5.80;0.75;;;27.40;44.70;;;;;;5073893;28;20111;-76
2021/10/04 11:33:48;;;;;;;5.30;0.60;;;27.30;44.10;;;;;;5073762;28;20103;-78
2021/10/04 11:36:18;;;;;;;3.13;0.60;;;26.90;44.10;;;;;;5073862;28;20028;-77
2021/10/04 11:38:48;;;;;;;2.70;0.57;;;26.80;44.60;;;;;;5075393;28;20033;-75
2021/10/04 11:41:20;;;;;;;2.63;0.60;;;26.70;44.40;;;;;;5082262;28;20089;-76
2021/10/04 11:43:46;;;;;;;5.32;0.60;;;26.80;45.40;;;;;;5081499;28;20015;-76
2021/10/04 11:46:17;;;;;;;10.43;0.70;;;27.10;44.70;;;;;;5082088;28;20380;-76
2021/10/04 11:48:43;;;;;;;3.20;0.45;;;27.40;44.30;;;;;;5075886;28;20384;-77
2021/10/04 11:51:11;;;;;;;4.22;0.70;;;27.50;43.30;;;;;;5091689;28;20073;-76
2021/10/04 11:53:41;;;;;;;3.83;0.70;;;27.30;43.30;;;;;;5077202;28;20029;-78
2021/10/04 11:56:09;;;;;;;5.63;0.70;;;27.30;43.50;;;;;;5088144;28;20035;-77
2021/10/04 11:58:36;;;;;;;3.83;0.65;;;27.40;43.10;;;;;;5092632;28;20020;-77
2021/10/04 12:01:02;;;;;;;5.15;0.93;;;27.50;43.00;;;;;;5092063;28;20479;-77
2021/10/04 12:03:31;;;;;;;2.97;0.80;;;27.80;43.40;;;;;;5093429;28;20478;-74
2021/10/04 12:05:58;;;;;;;3.70;0.50;;;27.80;42.50;;;;;;5093305;28;20051;-77
2021/10/04 12:08:25;;;;;;;2.88;0.55;;;27.90;42.00;;;;;;5089354;28;20036;-76
2021/10/04 12:10:58;;;;;;;5.15;0.80;;;27.70;41.70;;;;;;5072522;28;20039;-75
2021/10/04 12:13:29;;;;;;;6.78;0.55;;;27.70;41.10;;;;;;5072339;28;20415;-75
2021/10/04 12:15:57;;;;;;;2.72;0.60;;;27.90;41.10;;;;;;5073997;28;20056;-76
2021/10/04 12:18:25;;;;;;;2.30;0.50;;;28.00;41.20;;;;;;5072063;28;20099;-78
2021/10/04 12:21:18;;;;;;;4.32;0.60;;;28.20;41.70;;;;;;5077614;28;20027;-77
2021/10/04 12:24:03;;;;;;;5.20;0.60;;;28.40;40.10;;;;;;5080190;28;20099;-78
2021/10/04 12:26:29;;;;;;;2.63;0.50;;;28.40;39.90;;;;;;5088819;28;20032;-77
2021/10/04 12:28:55;;;;;;;5.80;0.65;;;28.20;39.70;;;;;;5075535;28;20031;-78
2021/10/04 12:31:31;;;;;;;2.92;0.40;;;28.20;40.40;;;;;;5084766;28;20020;-78
2021/10/04 12:33:56;;;;;;;5.10;0.50;;;28.60;40.80;;;;;;5077255;28;20025;-78
2021/10/04 12:36:23;;;;;;;5.43;0.60;;;28.90;40.40;;;;;;5080551;28;20103;-76
2021/10/04 12:38:58;;;;;;;3.33;0.52;;;29.10;39.90;;;;;;5082848;28;20028;-78
2021/10/04 12:41:40;;;;;;;2.75;0.63;;;29.30;39.30;;;;;;5079250;28;20073;-77
2021/10/04 12:44:20;;;;;;;4.35;0.40;;;29.40;38.70;;;;;;5083714;28;20037;-78
2021/10/04 12:47:02;;;;;;;1.83;0.45;;;29.30;37.90;;;;;;5082573;28;20115;-76
2021/10/04 12:49:28;;;;;;;5.18;0.30;;;29.10;38.50;;;;;;5080016;28;20043;-77
2021/10/04 12:51:53;;;;;;;3.55;0.40;;;29.30;38.60;;;;;;5081537;28;20362;-76
2021/10/04 12:54:26;;;;;;;2.92;0.43;;;29.20;38.20;;;;;;5078380;28;20024;-77